KZZV/ZZV METAR and TAF weather

Enter ICAO airport designator
Station Type Date Time Source
KZZV METAR 2020/09/24 09:53 UTC NOAA

KZZV 240953Z AUTO 00000KT 10SM CLR 13/13 A3001 RMK AO2 SLP157 T01330128


Station Type Date Time Source
KZZV Decoded METAR 2020/09/24 09:53 UTC NOAA

ZANESVILLE MUNICIPAL AIRPORT , OH, United States (KZZV) 39-57N 81-54W 268M
Sep 24, 2020 - 05:53 AM EDT / 2020.09.24 0953 UTC
Wind: Calm:0
Visibility: 10 mile(s):0
Sky conditions: clear
Temperature: 55.9 F (13.3 C)
Dew Point: 55.0 F (12.8 C)
Relative Humidity: 96%
Pressure (altimeter): 30.01 in. Hg (1016 hPa)
ob: KZZV 240953Z AUTO 00000KT 10SM CLR 13/13 A3001 RMK AO2 SLP157 T01330128
cycle: 10

Station Type Date Time Source
KZZV TAF 2020/09/24 06:39 UTC NOAA

TAF KZZV 240536Z 2406/2506 00000KT P6SM BKN250
FM241500 22003KT P6SM BKN250
FM242300 00000KT P6SM SCT250

Example: see airport list